Time;durP1;ratioP1;P1;durP2;ratioP2;P2;SDS_P1;SDS_P2;PMS_P1;PMS_P2;Temp;Humidity;BMP_temperature;BMP_pressure;BME280_temperature;BME280_humidity;BME280_pressure;Samples;Min_cycle;Max_cycle;Signal;HPM_P1;HPM_P2
2022/01/27 00:03:24;;;;;;;27.75;10.07;;;2.50;87.70;;;;;;6237756;28;20051;-81
2022/01/27 00:06:26;;;;;;;32.75;11.15;;;2.60;87.80;;;;;;6254040;28;20057;-81
2022/01/27 00:09:43;;;;;;;33.53;11.45;;;2.50;88.00;;;;;;6253922;28;20049;-81
2022/01/27 00:12:46;;;;;;;32.28;9.02;;;2.50;88.10;;;;;;6253498;28;20049;-82
2022/01/27 00:15:58;;;;;;;27.85;9.95;;;2.50;88.20;;;;;;6253043;28;20072;-82
2022/01/27 00:19:00;;;;;;;27.15;9.80;;;2.40;88.40;;;;;;6253484;28;20049;-81
2022/01/27 00:22:01;;;;;;;32.28;10.35;;;2.50;88.40;;;;;;6253813;28;20055;-82
2022/01/27 00:25:08;;;;;;;29.30;11.55;;;2.50;88.30;;;;;;6252258;28;20049;-81
2022/01/27 00:28:11;;;;;;;30.70;10.73;;;2.40;88.40;;;;;;6253558;28;20042;-81
2022/01/27 00:31:14;;;;;;;29.00;10.32;;;2.40;88.60;;;;;;6253064;28;20055;-79
2022/01/27 00:34:16;;;;;;;26.80;9.80;;;2.30;88.60;;;;;;6253472;28;20057;-82
2022/01/27 00:37:18;;;;;;;31.08;10.73;;;2.20;89.00;;;;;;6240869;28;20056;-82
2022/01/27 00:40:21;;;;;;;32.70;11.18;;;2.20;89.20;;;;;;6227925;28;20566;-82
2022/01/27 00:43:25;;;;;;;43.83;12.88;;;2.20;89.30;;;;;;6228786;28;20058;-82
2022/01/27 00:46:27;;;;;;;36.70;12.10;;;2.20;89.30;;;;;;6228525;28;20069;-81
2022/01/27 00:49:29;;;;;;;31.88;12.27;;;2.20;89.10;;;;;;6228803;28;20180;-83
2022/01/27 00:52:36;;;;;;;30.65;10.10;;;2.20;89.10;;;;;;6227283;28;20045;-82
2022/01/27 00:55:41;;;;;;;44.13;13.43;;;2.20;89.40;;;;;;6239665;28;20418;-81
2022/01/27 00:58:52;;;;;;;32.25;12.95;;;2.10;89.50;;;;;;6250985;28;20132;-80
2022/01/27 01:02:03;;;;;;;36.60;12.40;;;2.20;89.50;;;;;;6250222;28;20097;-81
2022/01/27 01:05:19;;;;;;;33.38;13.60;;;2.20;89.10;;;;;;6248994;28;20054;-81
2022/01/27 01:09:18;;;;;;;40.83;12.75;;;2.20;88.90;;;;;;6248964;28;20080;-81
2022/01/27 01:12:43;;;;;;;36.30;11.82;;;2.20;89.50;;;;;;6246760;28;20459;-81
2022/01/27 01:15:41;;;;;;;45.63;13.02;;;2.30;88.80;;;;;;6223843;28;20038;-81
2022/01/27 01:18:51;;;;;;;31.45;11.38;;;2.30;88.50;;;;;;6224329;28;20050;-80
2022/01/27 01:22:13;;;;;;;34.42;12.35;;;2.30;88.40;;;;;;6225432;28;20080;-81
2022/01/27 01:32:11;;;;;;;28.42;12.38;;;2.40;88.30;;;;;;6250891;28;20053;-81
2022/01/27 01:35:13;;;;;;;37.50;12.07;;;2.50;88.10;;;;;;6249977;28;20045;-81
2022/01/27 01:38:17;;;;;;;37.33;12.07;;;2.50;88.10;;;;;;6248440;28;20045;-81
2022/01/27 01:41:19;;;;;;;43.45;12.13;;;2.50;87.70;;;;;;6249478;28;20063;-81
2022/01/27 01:44:22;;;;;;;38.88;13.10;;;2.60;87.60;;;;;;6248941;28;20129;-81
2022/01/27 01:47:26;;;;;;;35.25;13.80;;;2.60;87.40;;;;;;6246814;28;20053;-81
2022/01/27 01:50:28;;;;;;;36.08;13.55;;;2.50;87.20;;;;;;6247705;28;20049;-81
2022/01/27 01:53:30;;;;;;;40.13;10.45;;;2.50;87.80;;;;;;6248786;28;20050;-81
2022/01/27 01:56:32;;;;;;;32.60;11.70;;;2.50;87.70;;;;;;6247885;28;20132;-81
2022/01/27 01:59:38;;;;;;;31.83;11.05;;;2.50;87.50;;;;;;6241500;28;20123;-81
2022/01/27 02:02:41;;;;;;;39.70;12.57;;;2.50;87.40;;;;;;6248616;28;20099;-80
2022/01/27 02:05:50;;;;;;;27.30;10.48;;;2.50;87.30;;;;;;6248717;28;20503;-81
2022/01/27 02:09:09;;;;;;;34.40;12.10;;;2.50;87.50;;;;;;6248233;28;20052;-80
2022/01/27 02:18:59;;;;;;;31.48;11.23;;;2.30;88.00;;;;;;6247129;28;20132;-80
2022/01/27 02:22:05;;;;;;;34.97;12.30;;;2.30;88.20;;;;;;6248752;28;20052;-80
2022/01/27 02:25:07;;;;;;;35.05;11.15;;;2.40;88.00;;;;;;6248175;28;20046;-81
2022/01/27 02:28:09;;;;;;;34.20;11.75;;;2.30;88.00;;;;;;6247768;28;20421;-80
2022/01/27 02:31:11;;;;;;;34.22;10.75;;;2.20;88.10;;;;;;6248644;28;20045;-80
2022/01/27 02:34:13;;;;;;;36.97;12.45;;;2.20;88.50;;;;;;6248507;28;20055;-80
2022/01/27 02:37:16;;;;;;;33.55;11.35;;;2.10;88.50;;;;;;6249001;28;20056;-80
2022/01/27 02:40:24;;;;;;;36.35;13.05;;;2.10;88.80;;;;;;6239682;28;20512;-80
2022/01/27 02:43:26;;;;;;;47.03;13.63;;;2.10;88.80;;;;;;6226500;28;20058;-81
2022/01/27 02:46:35;;;;;;;43.75;13.93;;;2.20;88.40;;;;;;6225867;28;20065;-81
2022/01/27 02:49:37;;;;;;;37.78;13.15;;;2.20;88.50;;;;;;6235771;28;20402;-81
2022/01/27 02:52:40;;;;;;;40.72;12.88;;;2.20;87.90;;;;;;6253829;28;20053;-81
2022/01/27 02:55:42;;;;;;;36.67;13.57;;;2.20;88.10;;;;;;6247092;28;20138;-81
2022/01/27 02:58:44;;;;;;;43.10;13.10;;;2.30;87.90;;;;;;6246318;28;20511;-81
2022/01/27 03:01:47;;;;;;;41.67;12.35;;;2.30;87.60;;;;;;6247296;28;20049;-81
2022/01/27 03:04:49;;;;;;;34.78;12.02;;;2.30;87.60;;;;;;6247301;28;20049;-81
2022/01/27 03:07:52;;;;;;;35.45;13.20;;;2.30;87.20;;;;;;6246367;28;20044;-80
2022/01/27 03:11:02;;;;;;;36.80;13.25;;;2.30;87.30;;;;;;6246636;28;20879;-81
2022/01/27 03:14:04;;;;;;;36.15;13.50;;;2.30;87.10;;;;;;6246990;28;20569;-81
2022/01/27 03:17:07;;;;;;;52.17;13.57;;;2.30;87.60;;;;;;6246197;28;20041;-81
2022/01/27 03:20:10;;;;;;;40.25;13.15;;;2.20;87.00;;;;;;6246394;28;20045;-80
2022/01/27 03:23:13;;;;;;;38.60;13.40;;;2.20;87.30;;;;;;6246917;28;20057;-80
2022/01/27 03:26:15;;;;;;;41.78;14.02;;;2.20;87.30;;;;;;6244805;28;20057;-81
2022/01/27 03:29:18;;;;;;;42.10;14.32;;;2.20;87.40;;;;;;6247027;28;20091;-80
2022/01/27 03:32:20;;;;;;;41.40;12.93;;;2.10;87.10;;;;;;6246089;28;20053;-80
2022/01/27 03:35:22;;;;;;;37.95;13.55;;;2.10;87.10;;;;;;6249188;28;20046;-80
2022/01/27 03:38:25;;;;;;;54.20;14.60;;;2.00;86.90;;;;;;6251326;28;20087;-80
2022/01/27 03:41:32;;;;;;;39.63;14.65;;;2.00;87.20;;;;;;6251465;28;20056;-80
2022/01/27 03:44:34;;;;;;;44.63;14.50;;;1.90;87.40;;;;;;6251389;28;20050;-81
2022/01/27 03:47:36;;;;;;;43.08;14.57;;;1.90;87.60;;;;;;6251141;28;20132;-81
2022/01/27 03:50:38;;;;;;;47.83;15.55;;;1.90;87.40;;;;;;6251481;28;20111;-80
2022/01/27 03:53:41;;;;;;;37.95;14.10;;;1.90;87.60;;;;;;6252134;28;20053;-81
2022/01/27 03:56:43;;;;;;;43.70;14.60;;;2.00;87.50;;;;;;6251065;28;20044;-81
2022/01/27 03:59:45;;;;;;;43.25;13.85;;;2.00;87.50;;;;;;6251217;28;20042;-81
2022/01/27 04:03:02;;;;;;;42.58;13.02;;;2.00;87.40;;;;;;6250714;28;20521;-81
2022/01/27 04:06:06;;;;;;;49.22;14.27;;;2.00;87.30;;;;;;6251264;28;20049;-81
2022/01/27 04:09:11;;;;;;;35.67;12.27;;;2.00;87.30;;;;;;6250639;28;20049;-81
2022/01/27 04:12:13;;;;;;;39.08;13.20;;;2.00;87.40;;;;;;6250460;28;20128;-80
2022/01/27 04:15:15;;;;;;;35.55;14.48;;;2.00;87.10;;;;;;6250538;28;20414;-81
2022/01/27 04:18:17;;;;;;;36.95;12.32;;;2.00;87.00;;;;;;6250714;28;20057;-80
2022/01/27 04:21:19;;;;;;;33.50;11.00;;;2.00;86.90;;;;;;6251433;28;20057;-80
2022/01/27 04:24:22;;;;;;;30.92;12.38;;;2.00;87.00;;;;;;6250934;28;20042;-80
2022/01/27 04:27:29;;;;;;;51.55;14.35;;;1.90;87.10;;;;;;6250485;28;20052;-80
2022/01/27 04:30:32;;;;;;;37.40;11.70;;;1.80;87.00;;;;;;6250632;28;20048;-80
2022/01/27 04:33:35;;;;;;;35.50;12.57;;;1.90;87.50;;;;;;6250855;28;20045;-80
2022/01/27 04:36:38;;;;;;;45.42;13.40;;;1.90;87.40;;;;;;6249682;28;20577;-80
2022/01/27 04:39:52;;;;;;;41.20;14.73;;;1.80;87.30;;;;;;6249459;28;20041;-81
2022/01/27 04:43:00;;;;;;;38.10;12.98;;;1.90;87.60;;;;;;6240510;28;20049;-80
2022/01/27 04:46:11;;;;;;;43.40;13.88;;;2.00;87.40;;;;;;6249882;28;20053;-80
2022/01/27 04:49:13;;;;;;;48.10;13.80;;;1.90;86.90;;;;;;6250190;28;20049;-80
2022/01/27 04:52:15;;;;;;;37.72;10.15;;;1.80;87.00;;;;;;6249487;28;20116;-80
2022/01/27 04:55:21;;;;;;;25.73;10.38;;;1.80;87.30;;;;;;6249927;28;20056;-80
2022/01/27 04:58:30;;;;;;;28.88;10.80;;;1.80;87.40;;;;;;6249310;28;20045;-80
2022/01/27 05:01:36;;;;;;;33.17;12.25;;;1.70;87.30;;;;;;6250821;28;20049;-80
2022/01/27 05:04:42;;;;;;;29.95;12.52;;;1.70;87.50;;;;;;6249061;28;20049;-80
2022/01/27 05:07:45;;;;;;;29.13;11.00;;;1.70;87.30;;;;;;6249650;28;20666;-80
2022/01/27 05:10:57;;;;;;;26.15;11.15;;;1.60;87.40;;;;;;6249747;28;20052;-81
2022/01/27 05:14:05;;;;;;;31.55;9.63;;;1.60;87.40;;;;;;6250569;28;20057;-80
2022/01/27 05:17:07;;;;;;;36.05;11.68;;;1.60;87.50;;;;;;6249152;28;20046;-80
2022/01/27 05:20:10;;;;;;;37.25;11.60;;;1.60;87.50;;;;;;6249526;28;20220;-81
2022/01/27 05:23:13;;;;;;;30.65;10.88;;;1.60;87.60;;;;;;6250355;28;20052;-80
2022/01/27 05:26:16;;;;;;;35.60;11.82;;;1.60;87.70;;;;;;6248936;28;20557;-81
2022/01/27 05:29:18;;;;;;;36.47;12.40;;;1.70;87.70;;;;;;6242417;28;20176;-80
2022/01/27 05:32:20;;;;;;;35.38;12.55;;;1.70;87.60;;;;;;6248044;28;20533;-81
2022/01/27 05:35:21;;;;;;;37.40;12.02;;;1.60;87.50;;;;;;6249629;28;20046;-81
2022/01/27 05:38:23;;;;;;;36.33;11.70;;;1.70;87.50;;;;;;6249206;28;20053;-81
2022/01/27 05:41:26;;;;;;;31.77;11.25;;;1.70;87.40;;;;;;6243116;28;20038;-81
2022/01/27 05:44:28;;;;;;;28.75;10.68;;;1.70;87.50;;;;;;6228143;28;20140;-80
2022/01/27 05:47:30;;;;;;;44.45;13.75;;;1.70;87.50;;;;;;6225374;28;20054;-81
2022/01/27 05:50:32;;;;;;;37.97;13.40;;;1.70;87.20;;;;;;6225150;28;20046;-81
2022/01/27 05:53:35;;;;;;;34.22;12.10;;;1.80;87.50;;;;;;6225159;28;20419;-81
2022/01/27 05:56:39;;;;;;;36.53;11.98;;;1.80;87.30;;;;;;6226732;28;20041;-81
2022/01/27 05:59:41;;;;;;;38.83;12.73;;;1.80;87.20;;;;;;6252441;28;20142;-80
2022/01/27 06:02:43;;;;;;;31.83;11.73;;;1.90;86.90;;;;;;6247813;28;20118;-80
2022/01/27 06:05:44;;;;;;;34.28;12.40;;;1.80;86.70;;;;;;6248780;28;20059;-80
2022/01/27 06:08:46;;;;;;;33.30;11.70;;;1.90;86.50;;;;;;6247722;28;20045;-80
2022/01/27 06:11:50;;;;;;;35.40;13.30;;;1.80;86.30;;;;;;6247955;28;20049;-80
2022/01/27 06:14:52;;;;;;;34.42;13.10;;;1.70;86.50;;;;;;6247182;28;20506;-80
2022/01/27 06:17:54;;;;;;;30.90;10.40;;;1.70;86.80;;;;;;6248127;28;20486;-81
2022/01/27 06:21:00;;;;;;;39.95;13.23;;;1.80;86.70;;;;;;6247567;28;20045;-80
2022/01/27 06:24:02;;;;;;;36.85;11.98;;;1.80;86.70;;;;;;6247703;28;20045;-80
2022/01/27 06:27:05;;;;;;;36.65;12.65;;;1.70;86.50;;;;;;6247312;28;20049;-81
2022/01/27 06:30:10;;;;;;;29.33;11.80;;;1.70;86.60;;;;;;6248160;28;20091;-79
2022/01/27 06:33:12;;;;;;;30.30;11.20;;;1.60;86.80;;;;;;6246925;28;20061;-78
2022/01/27 06:36:14;;;;;;;31.92;11.45;;;1.70;86.80;;;;;;6246701;28;20418;-79
2022/01/27 06:39:16;;;;;;;27.30;10.13;;;1.60;86.70;;;;;;6247148;28;20115;-79
2022/01/27 06:42:19;;;;;;;27.73;11.25;;;1.70;86.70;;;;;;6246336;28;20049;-80
2022/01/27 06:45:21;;;;;;;32.20;10.35;;;1.60;86.70;;;;;;6247802;28;20123;-79
2022/01/27 06:48:22;;;;;;;30.65;11.18;;;1.60;86.80;;;;;;6247251;28;20053;-80
2022/01/27 06:51:26;;;;;;;26.55;9.00;;;1.60;86.90;;;;;;6247487;28;20104;-80
2022/01/27 06:54:28;;;;;;;23.05;8.98;;;1.60;86.80;;;;;;6246424;28;20407;-80
2022/01/27 06:57:33;;;;;;;28.65;10.57;;;1.60;86.50;;;;;;6246424;23;20073;-78
2022/01/27 07:00:35;;;;;;;28.15;10.38;;;1.60;86.10;;;;;;6155046;28;20058;-79
2022/01/27 07:03:36;;;;;;;27.50;10.65;;;1.60;86.50;;;;;;6155358;28;20516;-78
2022/01/27 07:06:39;;;;;;;34.15;9.80;;;1.50;86.70;;;;;;6162201;28;20047;-78
2022/01/27 07:09:41;;;;;;;28.65;10.23;;;1.60;86.50;;;;;;6178990;28;20047;-80
2022/01/27 07:12:44;;;;;;;39.35;9.27;;;1.70;86.40;;;;;;6178829;28;20050;-78
2022/01/27 07:15:46;;;;;;;23.75;8.23;;;1.70;86.00;;;;;;6178904;28;20051;-77
2022/01/27 07:18:48;;;;;;;23.38;8.68;;;1.60;86.00;;;;;;6178819;28;20050;-77
2022/01/27 07:21:49;;;;;;;29.23;11.70;;;1.70;86.00;;;;;;6177796;28;20069;-78
2022/01/27 07:24:51;;;;;;;25.08;7.03;;;1.70;85.70;;;;;;6177571;28;20049;-79
2022/01/27 07:27:56;;;;;;;18.58;7.82;;;1.70;85.50;;;;;;6163123;28;20078;-79
2022/01/27 07:30:58;;;;;;;22.48;7.85;;;1.70;85.50;;;;;;6154909;28;20055;-78
2022/01/27 07:34:08;;;;;;;15.98;5.75;;;1.70;85.30;;;;;;6153470;29;20128;-81
2022/01/27 07:37:10;;;;;;;16.35;5.57;;;1.70;85.30;;;;;;6151046;28;20051;-79
2022/01/27 07:40:12;;;;;;;22.63;7.10;;;1.70;85.20;;;;;;6152186;28;20057;-80
2022/01/27 07:43:16;;;;;;;16.23;5.88;;;1.60;85.10;;;;;;6188366;28;20079;-80
2022/01/27 07:46:17;;;;;;;16.70;6.45;;;1.60;85.30;;;;;;6275160;28;20146;-80
2022/01/27 07:49:19;;;;;;;16.80;5.90;;;1.70;85.00;;;;;;6277048;28;20044;-79
2022/01/27 07:52:21;;;;;;;20.58;7.05;;;1.70;84.80;;;;;;6277147;28;20049;-77
2022/01/27 07:55:23;;;;;;;18.17;7.38;;;1.70;84.80;;;;;;6277114;28;20053;-78
2022/01/27 07:58:26;;;;;;;17.35;6.35;;;1.60;84.90;;;;;;6183626;28;20093;-80
2022/01/27 08:01:28;;;;;;;20.25;7.63;;;1.60;85.30;;;;;;6154278;28;20061;-78
2022/01/27 08:04:29;;;;;;;19.05;8.43;;;1.70;85.20;;;;;;6150089;28;20526;-80
2022/01/27 08:07:31;;;;;;;17.52;7.90;;;1.70;85.20;;;;;;6149685;28;20047;-78
2022/01/27 08:10:37;;;;;;;17.65;7.10;;;1.70;85.30;;;;;;6149824;28;20047;-79
2022/01/27 08:13:40;;;;;;;24.70;8.32;;;1.80;85.30;;;;;;6151019;28;20502;-79
2022/01/27 08:16:42;;;;;;;27.17;8.38;;;1.80;85.30;;;;;;6147650;28;20055;-80
2022/01/27 08:19:44;;;;;;;28.80;11.15;;;1.80;85.30;;;;;;6149261;28;20062;-78
2022/01/27 08:22:47;;;;;;;25.38;9.52;;;1.80;85.20;;;;;;6153772;28;20055;-78
2022/01/27 08:25:59;;;;;;;34.13;10.88;;;1.80;85.30;;;;;;6153782;28;20051;-79
2022/01/27 08:29:10;;;;;;;25.92;8.95;;;1.80;85.70;;;;;;6153982;28;20133;-80
2022/01/27 08:32:17;;;;;;;31.13;9.70;;;1.80;86.20;;;;;;6153479;28;20129;-78
2022/01/27 08:35:21;;;;;;;35.20;10.77;;;1.80;86.50;;;;;;6174019;28;20561;-79
2022/01/27 08:38:22;;;;;;;29.58;10.18;;;1.80;86.30;;;;;;6255196;28;20531;-79
2022/01/27 08:41:24;;;;;;;32.92;12.88;;;1.80;86.40;;;;;;6255497;28;20052;-79
2022/01/27 08:44:28;;;;;;;31.42;10.98;;;1.90;86.30;;;;;;6246400;28;20051;-80
2022/01/27 08:47:30;;;;;;;36.42;12.23;;;1.80;86.10;;;;;;6271765;28;20051;-79
2022/01/27 08:50:32;;;;;;;34.83;11.40;;;1.80;86.50;;;;;;6279259;28;20793;-78
2022/01/27 08:53:36;;;;;;;36.28;14.45;;;1.70;86.60;;;;;;6279170;28;20138;-78
2022/01/27 08:56:38;;;;;;;33.75;13.65;;;1.70;87.10;;;;;;6263451;28;20046;-78
2022/01/27 08:59:42;;;;;;;43.35;13.32;;;1.70;87.00;;;;;;6153996;28;20130;-80
2022/01/27 09:02:44;;;;;;;41.25;13.55;;;1.70;87.20;;;;;;6153078;28;20047;-78
2022/01/27 09:05:45;;;;;;;47.67;14.38;;;1.80;87.10;;;;;;6154130;28;20051;-79
2022/01/27 09:08:48;;;;;;;39.90;14.90;;;1.70;87.00;;;;;;6152818;28;20062;-78
2022/01/27 09:11:50;;;;;;;46.17;13.90;;;1.70;87.30;;;;;;6154001;28;20094;-78
2022/01/27 09:14:53;;;;;;;42.72;16.30;;;1.70;87.10;;;;;;6171131;28;20130;-79
2022/01/27 09:17:56;;;;;;;40.08;14.65;;;1.70;87.20;;;;;;6178593;28;20134;-78
2022/01/27 09:21:00;;;;;;;59.08;17.27;;;1.70;87.10;;;;;;6177405;28;20061;-78
2022/01/27 09:24:01;;;;;;;41.03;15.57;;;1.70;87.00;;;;;;6176931;28;20051;-78
2022/01/27 09:27:03;;;;;;;47.45;13.85;;;1.80;87.10;;;;;;6165274;28;20054;-78
2022/01/27 09:30:08;;;;;;;46.65;15.73;;;1.90;86.70;;;;;;6151042;28;20056;-77
2022/01/27 09:33:10;;;;;;;36.28;14.40;;;2.00;86.00;;;;;;6150866;28;20138;-79
2022/01/27 09:36:12;;;;;;;47.08;14.95;;;2.00;86.00;;;;;;6148937;28;20116;-79
2022/01/27 09:39:15;;;;;;;44.10;12.95;;;2.10;86.10;;;;;;6148530;28;20071;-79
2022/01/27 09:42:17;;;;;;;45.63;15.32;;;2.20;86.20;;;;;;6150384;28;20047;-80
2022/01/27 09:45:21;;;;;;;44.28;13.07;;;2.40;86.00;;;;;;6150678;28;20086;-78
2022/01/27 09:48:26;;;;;;;48.67;15.57;;;2.50;85.70;;;;;;6150073;28;20047;-78
2022/01/27 09:51:39;;;;;;;51.17;16.27;;;2.60;85.10;;;;;;6150506;28;20428;-78
2022/01/27 09:54:40;;;;;;;44.60;14.60;;;2.50;84.90;;;;;;6150564;28;20049;-78
2022/01/27 09:57:42;;;;;;;42.00;15.30;;;2.60;85.30;;;;;;6150949;28;20057;-78
2022/01/27 10:00:45;;;;;;;42.80;14.35;;;2.70;84.90;;;;;;6150218;28;20424;-80
2022/01/27 10:03:55;;;;;;;46.50;14.57;;;2.80;84.70;;;;;;6151819;28;20050;-79
2022/01/27 10:06:58;;;;;;;42.28;14.93;;;2.90;84.30;;;;;;6152059;28;20126;-79
2022/01/27 10:10:02;;;;;;;50.17;17.13;;;3.00;83.80;;;;;;6151710;28;20134;-78
2022/01/27 10:13:07;;;;;;;50.83;14.60;;;3.10;83.60;;;;;;6153443;28;20044;-79
2022/01/27 10:16:28;;;;;;;47.50;14.60;;;3.10;83.30;;;;;;6149613;28;20043;-78
2022/01/27 10:19:30;;;;;;;56.22;17.08;;;3.10;83.00;;;;;;6150916;28;20044;-80
2022/01/27 10:22:32;;;;;;;44.47;14.38;;;3.20;83.20;;;;;;6151691;28;20063;-78
2022/01/27 10:25:35;;;;;;;41.80;14.52;;;3.20;83.10;;;;;;6150212;28;20089;-79
2022/01/27 10:28:44;;;;;;;40.80;15.48;;;3.10;83.30;;;;;;6150118;28;20049;-78
2022/01/27 10:31:48;;;;;;;48.47;15.55;;;3.20;83.50;;;;;;6151102;28;20051;-78
2022/01/27 10:34:57;;;;;;;31.48;12.82;;;3.30;83.20;;;;;;6150030;28;20121;-78
2022/01/27 10:38:02;;;;;;;32.53;12.10;;;3.30;82.80;;;;;;6151307;28;20094;-78
2022/01/27 10:41:07;;;;;;;38.28;11.20;;;3.40;82.70;;;;;;6150674;28;20062;-80
2022/01/27 10:44:12;;;;;;;36.70;13.70;;;3.30;82.30;;;;;;6150130;28;20047;-79
2022/01/27 10:47:19;;;;;;;38.30;13.23;;;3.30;82.30;;;;;;6150990;28;20051;-79
2022/01/27 10:50:22;;;;;;;33.85;11.00;;;3.40;82.60;;;;;;6149996;28;20063;-78
2022/01/27 10:53:43;;;;;;;34.20;13.73;;;3.40;82.30;;;;;;6150130;28;20058;-77
2022/01/27 10:56:46;;;;;;;32.83;12.52;;;3.40;82.30;;;;;;6149614;28;20047;-80
2022/01/27 10:59:48;;;;;;;40.72;13.25;;;3.40;82.10;;;;;;6149951;28;20054;-79
2022/01/27 11:02:53;;;;;;;42.45;13.10;;;3.50;82.80;;;;;;6150065;28;20054;-79
2022/01/27 11:05:56;;;;;;;34.83;11.38;;;3.60;81.90;;;;;;6149189;29;20063;-79
2022/01/27 11:09:00;;;;;;;26.65;9.00;;;3.60;81.50;;;;;;6149227;28;20047;-78
2022/01/27 11:12:07;;;;;;;31.08;10.82;;;3.80;81.10;;;;;;6149677;28;20066;-78
2022/01/27 11:15:11;;;;;;;28.20;11.95;;;3.90;80.90;;;;;;6150237;28;20138;-79
2022/01/27 11:18:16;;;;;;;32.92;10.52;;;3.90;80.40;;;;;;6149478;28;20126;-79
2022/01/27 11:21:30;;;;;;;35.90;11.48;;;4.10;80.50;;;;;;6150577;28;20054;-78
2022/01/27 11:25:07;;;;;;;36.38;12.98;;;4.30;79.80;;;;;;6149405;28;20126;-78
2022/01/27 11:28:01;;;;;;;34.67;12.60;;;4.30;79.50;;;;;;6149064;28;20365;-79
2022/01/27 11:31:17;;;;;;;33.40;10.77;;;4.40;79.40;;;;;;6152642;28;20074;-78
2022/01/27 11:34:20;;;;;;;25.73;11.50;;;4.60;79.30;;;;;;6155223;28;20062;-78
2022/01/27 11:37:34;;;;;;;32.08;11.35;;;4.70;78.50;;;;;;6148233;28;20058;-79
2022/01/27 11:40:37;;;;;;;24.38;10.35;;;4.70;78.10;;;;;;6147406;28;20160;-78
2022/01/27 11:43:39;;;;;;;21.95;9.55;;;4.70;78.40;;;;;;6147436;28;20575;-79
2022/01/27 11:46:41;;;;;;;26.00;11.35;;;4.80;78.00;;;;;;6147299;28;20055;-79
2022/01/27 11:50:07;;;;;;;31.88;11.07;;;4.90;78.20;;;;;;6147662;28;20052;-80
2022/01/27 11:53:12;;;;;;;25.80;10.15;;;5.00;78.00;;;;;;6149129;28;20096;-78
2022/01/27 11:56:37;;;;;;;27.27;9.73;;;5.10;77.50;;;;;;6150548;28;20051;-78
2022/01/27 11:59:39;;;;;;;32.45;10.70;;;5.00;77.50;;;;;;6147808;28;20047;-79
2022/01/27 12:03:08;;;;;;;31.67;10.80;;;4.80;77.90;;;;;;6152260;28;20132;-79
2022/01/27 12:06:21;;;;;;;;;;;4.70;78.70;;;;;;6152566;28;20129;-78
2022/01/27 12:09:35;;;;;;;29.50;10.45;;;4.80;78.90;;;;;;6152382;28;20311;-79
2022/01/27 12:12:38;;;;;;;30.05;11.02;;;4.80;78.60;;;;;;6151850;28;20043;-78
2022/01/27 12:16:23;;;;;;;21.90;8.48;;;4.80;78.40;;;;;;6152426;28;20062;-77
2022/01/27 12:19:25;;;;;;;32.67;13.00;;;4.90;78.30;;;;;;6151654;28;20051;-77
2022/01/27 12:23:00;;;;;;;26.17;11.73;;;4.90;78.00;;;;;;6151442;28;20051;-77
2022/01/27 12:26:03;;;;;;;28.63;11.20;;;4.80;78.20;;;;;;6151354;28;20048;-78
2022/01/27 12:29:05;;;;;;;26.42;9.73;;;4.70;78.10;;;;;;6151650;28;20059;-79
2022/01/27 12:32:09;;;;;;;27.58;10.02;;;4.60;78.20;;;;;;6152171;28;20057;-79
2022/01/27 12:35:13;;;;;;;22.08;8.32;;;4.50;78.10;;;;;;6149569;28;20051;-78
2022/01/27 12:38:16;;;;;;;26.38;10.68;;;4.50;78.50;;;;;;6150738;28;20059;-78
2022/01/27 12:41:18;;;;;;;24.55;11.32;;;4.50;78.60;;;;;;6151571;28;20043;-80
2022/01/27 12:44:20;;;;;;;20.55;8.98;;;4.40;78.80;;;;;;6151405;28;20043;-82
2022/01/27 12:47:22;;;;;;;21.10;8.55;;;4.60;78.50;;;;;;6150082;28;20173;-78
2022/01/27 12:50:24;;;;;;;22.75;9.00;;;4.70;78.20;;;;;;6149988;28;20093;-78
2022/01/27 12:53:30;;;;;;;24.40;9.55;;;4.70;78.50;;;;;;6150431;28;20524;-78
2022/01/27 12:56:35;;;;;;;25.52;10.00;;;4.80;78.00;;;;;;6151109;28;20044;-79
2022/01/27 12:59:40;;;;;;;25.90;9.50;;;4.80;77.30;;;;;;6242358;23;20136;-80
2022/01/27 13:02:42;;;;;;;28.02;10.18;;;5.00;77.50;;;;;;6253744;28;20045;-81
2022/01/27 13:05:48;;;;;;;26.27;11.25;;;5.10;77.30;;;;;;6227789;28;20491;-82
2022/01/27 13:08:51;;;;;;;20.83;10.30;;;5.30;76.30;;;;;;6216841;28;20050;-82
2022/01/27 13:11:54;;;;;;;21.08;10.75;;;5.50;75.70;;;;;;6205142;28;20656;-82
2022/01/27 13:15:04;;;;;;;25.35;9.88;;;5.60;75.10;;;;;;6204098;28;20057;-81
2022/01/27 13:18:14;;;;;;;27.50;10.98;;;5.50;75.20;;;;;;6205406;28;20156;-82
2022/01/27 13:21:20;;;;;;;21.35;9.25;;;5.50;75.30;;;;;;6203990;28;20139;-81
2022/01/27 13:24:23;;;;;;;25.90;10.30;;;5.50;75.50;;;;;;6203166;28;20090;-80
2022/01/27 13:27:25;;;;;;;20.05;9.43;;;5.60;75.50;;;;;;6213098;28;20058;-81
2022/01/27 13:30:27;;;;;;;22.00;9.90;;;5.70;75.60;;;;;;6210373;28;20204;-81
2022/01/27 13:33:35;;;;;;;21.23;9.35;;;5.80;75.40;;;;;;6205096;28;20046;-81
2022/01/27 13:36:37;;;;;;;25.50;8.93;;;5.80;74.90;;;;;;6205058;28;20414;-79
2022/01/27 13:43:16;;;;;;;24.75;9.65;;;5.60;75.60;;;;;;6152649;28;20505;-81
2022/01/27 13:46:40;;;;;;;27.55;10.63;;;5.50;75.50;;;;;;6203510;28;20069;-80
2022/01/27 13:49:42;;;;;;;23.33;8.45;;;5.50;76.70;;;;;;6204460;28;20042;-81
2022/01/27 13:52:45;;;;;;;19.67;8.23;;;5.40;76.20;;;;;;6216726;28;20045;-79
2022/01/27 13:55:59;;;;;;;27.08;9.68;;;5.40;76.80;;;;;;6230473;28;20129;-80
2022/01/27 13:59:10;;;;;;;23.42;9.27;;;5.40;76.70;;;;;;6218128;28;20117;-80
2022/01/27 14:02:19;;;;;;;25.30;9.73;;;5.40;76.90;;;;;;6230425;28;20053;-80
2022/01/27 14:05:22;;;;;;;23.30;9.20;;;5.50;76.80;;;;;;6230340;28;20061;-80
2022/01/27 14:08:35;;;;;;;24.50;9.95;;;5.60;76.50;;;;;;6229202;28;20060;-80
2022/01/27 14:11:40;;;;;;;19.67;8.00;;;5.70;76.40;;;;;;6228473;28;20046;-82
2022/01/27 14:14:47;;;;;;;27.27;9.43;;;5.70;76.60;;;;;;6228172;28;20558;-81
2022/01/27 14:17:57;;;;;;;22.98;10.00;;;5.70;76.30;;;;;;6227764;28;20706;-81
2022/01/27 14:21:02;;;;;;;24.50;9.35;;;5.70;76.70;;;;;;6228193;28;20041;-80
2022/01/27 14:24:09;;;;;;;22.65;11.68;;;5.70;76.20;;;;;;6228544;28;20104;-81
2022/01/27 14:27:12;;;;;;;20.80;10.07;;;5.80;76.50;;;;;;6225249;28;20523;-80
2022/01/27 14:30:16;;;;;;;19.90;8.30;;;5.80;76.40;;;;;;6218709;28;20308;-81
2022/01/27 14:33:19;;;;;;;21.00;10.55;;;5.70;76.40;;;;;;6228230;28;20428;-81
2022/01/27 14:36:22;;;;;;;19.60;7.70;;;5.70;76.70;;;;;;6228209;28;20049;-82
2022/01/27 14:39:23;;;;;;;18.98;8.93;;;5.70;77.00;;;;;;6227202;28;20050;-81
2022/01/27 14:42:26;;;;;;;21.55;9.05;;;5.60;77.20;;;;;;6211221;28;20130;-81
2022/01/27 14:45:30;;;;;;;24.80;10.60;;;5.60;77.10;;;;;;6205875;28;20356;-82
2022/01/27 14:48:34;;;;;;;25.25;12.55;;;5.60;77.20;;;;;;6205106;28;20062;-81
2022/01/27 14:51:36;;;;;;;26.60;12.30;;;5.50;77.60;;;;;;6204523;28;20050;-81
2022/01/27 14:54:38;;;;;;;27.40;11.38;;;5.40;77.70;;;;;;6206627;28;20126;-80
2022/01/27 14:57:43;;;;;;;25.27;10.27;;;5.30;78.20;;;;;;6214961;28;20046;-80
2022/01/27 15:00:45;;;;;;;21.23;9.85;;;5.20;79.00;;;;;;6225083;28;20049;-81
2022/01/27 15:03:46;;;;;;;21.58;10.15;;;5.20;79.10;;;;;;6210507;28;20042;-81
2022/01/27 15:06:48;;;;;;;26.90;12.25;;;5.10;79.30;;;;;;6204512;28;20125;-80
2022/01/27 15:09:50;;;;;;;26.45;10.02;;;5.10;79.80;;;;;;6203688;28;20104;-80
2022/01/27 15:12:55;;;;;;;20.45;10.45;;;5.00;80.00;;;;;;6204947;28;20070;-80
2022/01/27 15:19:34;;;;;;;22.88;9.07;;;4.90;80.60;;;;;;6201993;28;20488;-81
2022/01/27 15:22:35;;;;;;;24.45;10.70;;;4.90;80.70;;;;;;6216480;28;20129;-80
2022/01/27 15:25:37;;;;;;;27.77;10.52;;;5.00;80.70;;;;;;6229156;28;20101;-82
2022/01/27 15:28:41;;;;;;;20.33;8.45;;;5.00;81.00;;;;;;6214701;28;20038;-81
2022/01/27 15:31:43;;;;;;;29.05;11.70;;;5.00;80.90;;;;;;6207807;28;20052;-80
2022/01/27 15:34:45;;;;;;;25.83;10.60;;;4.90;80.80;;;;;;6209738;28;20387;-80
2022/01/27 15:37:47;;;;;;;21.88;10.32;;;4.80;81.30;;;;;;6209466;28;20424;-81
2022/01/27 15:40:49;;;;;;;24.63;10.65;;;4.80;81.40;;;;;;6209286;28;20050;-80
2022/01/27 15:43:52;;;;;;;26.08;10.02;;;4.80;81.60;;;;;;6211193;28;20056;-81
2022/01/27 15:46:54;;;;;;;31.77;12.38;;;4.70;82.10;;;;;;6210797;28;20054;-81
2022/01/27 15:49:56;;;;;;;26.10;9.82;;;4.70;82.60;;;;;;6210473;28;20054;-80
2022/01/27 15:52:58;;;;;;;30.88;11.82;;;4.70;82.50;;;;;;6211160;28;20504;-81
2022/01/27 15:56:00;;;;;;;29.98;11.48;;;4.70;83.00;;;;;;6210798;28;20050;-81
2022/01/27 15:59:04;;;;;;;26.98;10.02;;;4.60;83.20;;;;;;6222922;28;20048;-81
2022/01/27 16:02:06;;;;;;;26.65;10.85;;;4.60;83.30;;;;;;6232604;28;20517;-82
2022/01/27 16:05:08;;;;;;;25.55;11.52;;;4.60;83.70;;;;;;6231233;28;20088;-79
2022/01/27 16:08:10;;;;;;;31.25;13.02;;;4.50;83.90;;;;;;6235414;28;20046;-80
2022/01/27 16:11:12;;;;;;;28.52;12.30;;;4.40;84.20;;;;;;6234396;28;20132;-82
2022/01/27 16:14:15;;;;;;;23.75;11.55;;;4.50;84.20;;;;;;6233651;28;20104;-81